sensor_id;sensor_type;location;lat;lon;timestamp;P1;durP1;ratioP1;P2;durP2;ratioP2
5821;SDS011;2937;48.562;8.022;2023-04-15T00:02:35;3.87;;;2.40;;
5821;SDS011;2937;48.562;8.022;2023-04-15T00:07:29;4.47;;;2.93;;
5821;SDS011;2937;48.562;8.022;2023-04-15T00:12:22;5.63;;;2.90;;
5821;SDS011;2937;48.562;8.022;2023-04-15T00:17:14;5.67;;;3.03;;
5821;SDS011;2937;48.562;8.022;2023-04-15T00:22:08;6.90;;;2.87;;
5821;SDS011;2937;48.562;8.022;2023-04-15T00:27:01;4.50;;;2.87;;
5821;SDS011;2937;48.562;8.022;2023-04-15T00:31:55;5.60;;;2.77;;
5821;SDS011;2937;48.562;8.022;2023-04-15T00:36:48;5.20;;;2.73;;
5821;SDS011;2937;48.562;8.022;2023-04-15T00:41:42;6.57;;;3.13;;
5821;SDS011;2937;48.562;8.022;2023-04-15T00:46:36;6.73;;;4.00;;
5821;SDS011;2937;48.562;8.022;2023-04-15T00:51:30;7.43;;;3.90;;
5821;SDS011;2937;48.562;8.022;2023-04-15T00:56:24;7.53;;;4.13;;
5821;SDS011;2937;48.562;8.022;2023-04-15T01:01:20;4.77;;;3.80;;
5821;SDS011;2937;48.562;8.022;2023-04-15T01:06:12;5.20;;;3.40;;
5821;SDS011;2937;48.562;8.022;2023-04-15T01:11:06;4.07;;;3.13;;
5821;SDS011;2937;48.562;8.022;2023-04-15T01:15:59;3.93;;;2.93;;
5821;SDS011;2937;48.562;8.022;2023-04-15T01:20:54;8.57;;;3.37;;
5821;SDS011;2937;48.562;8.022;2023-04-15T01:25:49;5.80;;;3.97;;
5821;SDS011;2937;48.562;8.022;2023-04-15T01:30:42;11.30;;;5.27;;
5821;SDS011;2937;48.562;8.022;2023-04-15T01:35:35;7.27;;;5.20;;
5821;SDS011;2937;48.562;8.022;2023-04-15T01:40:28;8.23;;;4.90;;
5821;SDS011;2937;48.562;8.022;2023-04-15T01:45:23;12.40;;;5.00;;
5821;SDS011;2937;48.562;8.022;2023-04-15T01:50:16;4.43;;;3.83;;
5821;SDS011;2937;48.562;8.022;2023-04-15T01:55:09;5.67;;;3.70;;
5821;SDS011;2937;48.562;8.022;2023-04-15T02:00:02;6.00;;;3.90;;
5821;SDS011;2937;48.562;8.022;2023-04-15T02:05:05;5.13;;;3.20;;
5821;SDS011;2937;48.562;8.022;2023-04-15T02:09:57;4.20;;;2.73;;
5821;SDS011;2937;48.562;8.022;2023-04-15T02:14:50;7.50;;;4.67;;
5821;SDS011;2937;48.562;8.022;2023-04-15T02:19:43;6.33;;;3.83;;
5821;SDS011;2937;48.562;8.022;2023-04-15T02:24:36;5.00;;;3.47;;
5821;SDS011;2937;48.562;8.022;2023-04-15T02:29:30;4.73;;;2.80;;
5821;SDS011;2937;48.562;8.022;2023-04-15T02:34:24;5.57;;;3.00;;
5821;SDS011;2937;48.562;8.022;2023-04-15T02:39:17;9.23;;;3.60;;
5821;SDS011;2937;48.562;8.022;2023-04-15T02:44:11;3.97;;;2.67;;
5821;SDS011;2937;48.562;8.022;2023-04-15T02:49:04;5.57;;;3.90;;
5821;SDS011;2937;48.562;8.022;2023-04-15T02:53:57;6.63;;;3.80;;
5821;SDS011;2937;48.562;8.022;2023-04-15T02:58:49;8.03;;;3.57;;
5821;SDS011;2937;48.562;8.022;2023-04-15T03:03:43;4.43;;;3.23;;
5821;SDS011;2937;48.562;8.022;2023-04-15T03:08:36;8.40;;;4.10;;
5821;SDS011;2937;48.562;8.022;2023-04-15T03:13:29;8.97;;;4.60;;
5821;SDS011;2937;48.562;8.022;2023-04-15T03:18:24;3.90;;;3.17;;
5821;SDS011;2937;48.562;8.022;2023-04-15T03:23:18;3.77;;;3.00;;
5821;SDS011;2937;48.562;8.022;2023-04-15T03:28:12;3.20;;;2.80;;
5821;SDS011;2937;48.562;8.022;2023-04-15T03:33:05;4.50;;;3.00;;
5821;SDS011;2937;48.562;8.022;2023-04-15T03:37:59;8.13;;;3.87;;
5821;SDS011;2937;48.562;8.022;2023-04-15T03:42:53;9.23;;;4.03;;
5821;SDS011;2937;48.562;8.022;2023-04-15T03:47:46;6.93;;;4.80;;
5821;SDS011;2937;48.562;8.022;2023-04-15T03:52:40;7.30;;;3.97;;
5821;SDS011;2937;48.562;8.022;2023-04-15T03:57:32;6.30;;;4.60;;
5821;SDS011;2937;48.562;8.022;2023-04-15T04:02:29;6.87;;;3.60;;
5821;SDS011;2937;48.562;8.022;2023-04-15T04:07:22;10.60;;;5.13;;
5821;SDS011;2937;48.562;8.022;2023-04-15T04:12:15;5.03;;;3.60;;
5821;SDS011;2937;48.562;8.022;2023-04-15T04:17:08;7.10;;;4.10;;
5821;SDS011;2937;48.562;8.022;2023-04-15T04:22:02;6.87;;;3.73;;
5821;SDS011;2937;48.562;8.022;2023-04-15T04:26:54;4.57;;;3.30;;
5821;SDS011;2937;48.562;8.022;2023-04-15T04:31:48;4.87;;;3.00;;
5821;SDS011;2937;48.562;8.022;2023-04-15T04:36:40;7.00;;;5.20;;
5821;SDS011;2937;48.562;8.022;2023-04-15T04:41:34;5.20;;;3.60;;
5821;SDS011;2937;48.562;8.022;2023-04-15T04:46:27;8.70;;;3.60;;
5821;SDS011;2937;48.562;8.022;2023-04-15T04:51:20;5.03;;;2.83;;
5821;SDS011;2937;48.562;8.022;2023-04-15T04:56:12;4.53;;;3.10;;
5821;SDS011;2937;48.562;8.022;2023-04-15T05:01:06;5.90;;;3.47;;
5821;SDS011;2937;48.562;8.022;2023-04-15T05:05:59;4.27;;;2.97;;
5821;SDS011;2937;48.562;8.022;2023-04-15T05:10:53;6.47;;;4.17;;
5821;SDS011;2937;48.562;8.022;2023-04-15T05:15:45;10.93;;;5.23;;
5821;SDS011;2937;48.562;8.022;2023-04-15T05:20:39;5.67;;;4.50;;
5821;SDS011;2937;48.562;8.022;2023-04-15T05:25:32;7.23;;;3.63;;
5821;SDS011;2937;48.562;8.022;2023-04-15T05:30:25;6.70;;;3.10;;
5821;SDS011;2937;48.562;8.022;2023-04-15T05:35:17;5.40;;;3.63;;
5821;SDS011;2937;48.562;8.022;2023-04-15T05:40:11;5.87;;;3.50;;
5821;SDS011;2937;48.562;8.022;2023-04-15T05:45:05;8.57;;;4.80;;
5821;SDS011;2937;48.562;8.022;2023-04-15T05:49:59;8.00;;;4.70;;
5821;SDS011;2937;48.562;8.022;2023-04-15T05:54:52;5.73;;;3.80;;
5821;SDS011;2937;48.562;8.022;2023-04-15T05:59:46;5.93;;;4.07;;
5821;SDS011;2937;48.562;8.022;2023-04-15T06:04:39;7.37;;;4.13;;
5821;SDS011;2937;48.562;8.022;2023-04-15T06:09:32;7.60;;;4.20;;
5821;SDS011;2937;48.562;8.022;2023-04-15T06:14:25;7.33;;;3.87;;
5821;SDS011;2937;48.562;8.022;2023-04-15T06:19:19;4.77;;;3.53;;
5821;SDS011;2937;48.562;8.022;2023-04-15T06:24:11;9.00;;;3.90;;
5821;SDS011;2937;48.562;8.022;2023-04-15T06:29:04;6.90;;;4.77;;
5821;SDS011;2937;48.562;8.022;2023-04-15T06:33:57;6.90;;;5.27;;
5821;SDS011;2937;48.562;8.022;2023-04-15T06:38:51;10.13;;;5.10;;
5821;SDS011;2937;48.562;8.022;2023-04-15T06:43:44;8.57;;;5.93;;
5821;SDS011;2937;48.562;8.022;2023-04-15T06:48:36;6.23;;;4.40;;
5821;SDS011;2937;48.562;8.022;2023-04-15T06:53:29;8.93;;;5.20;;
5821;SDS011;2937;48.562;8.022;2023-04-15T06:58:23;9.13;;;4.87;;
5821;SDS011;2937;48.562;8.022;2023-04-15T07:03:16;8.60;;;4.70;;
5821;SDS011;2937;48.562;8.022;2023-04-15T07:08:09;5.30;;;4.20;;
5821;SDS011;2937;48.562;8.022;2023-04-15T07:13:02;6.80;;;4.50;;
5821;SDS011;2937;48.562;8.022;2023-04-15T07:17:56;6.80;;;4.40;;
5821;SDS011;2937;48.562;8.022;2023-04-15T07:22:49;5.87;;;3.50;;
5821;SDS011;2937;48.562;8.022;2023-04-15T07:27:42;13.93;;;7.40;;
5821;SDS011;2937;48.562;8.022;2023-04-15T07:32:34;33.10;;;13.00;;
5821;SDS011;2937;48.562;8.022;2023-04-15T07:37:28;8.90;;;5.23;;
5821;SDS011;2937;48.562;8.022;2023-04-15T07:42:21;7.17;;;4.73;;
5821;SDS011;2937;48.562;8.022;2023-04-15T07:47:17;7.93;;;4.67;;
5821;SDS011;2937;48.562;8.022;2023-04-15T07:52:12;13.30;;;12.00;;
5821;SDS011;2937;48.562;8.022;2023-04-15T07:57:06;8.60;;;4.80;;
5821;SDS011;2937;48.562;8.022;2023-04-15T08:01:59;6.70;;;4.80;;
5821;SDS011;2937;48.562;8.022;2023-04-15T08:06:52;9.17;;;5.60;;
5821;SDS011;2937;48.562;8.022;2023-04-15T08:11:45;10.03;;;5.53;;
5821;SDS011;2937;48.562;8.022;2023-04-15T08:16:39;7.87;;;5.37;;
5821;SDS011;2937;48.562;8.022;2023-04-15T08:21:32;8.57;;;4.43;;
5821;SDS011;2937;48.562;8.022;2023-04-15T08:26:25;8.37;;;5.00;;
5821;SDS011;2937;48.562;8.022;2023-04-15T08:31:18;8.27;;;5.07;;
5821;SDS011;2937;48.562;8.022;2023-04-15T08:36:13;7.70;;;4.40;;
5821;SDS011;2937;48.562;8.022;2023-04-15T08:41:06;10.80;;;4.00;;
5821;SDS011;2937;48.562;8.022;2023-04-15T08:46:00;6.50;;;3.80;;
5821;SDS011;2937;48.562;8.022;2023-04-15T08:50:53;7.67;;;4.50;;
5821;SDS011;2937;48.562;8.022;2023-04-15T08:55:50;7.40;;;3.37;;
5821;SDS011;2937;48.562;8.022;2023-04-15T09:00:43;5.77;;;3.37;;
5821;SDS011;2937;48.562;8.022;2023-04-15T09:05:36;4.83;;;3.70;;
5821;SDS011;2937;48.562;8.022;2023-04-15T09:10:29;8.60;;;5.07;;
5821;SDS011;2937;48.562;8.022;2023-04-15T09:15:24;5.30;;;3.40;;
5821;SDS011;2937;48.562;8.022;2023-04-15T09:20:17;5.83;;;3.40;;
5821;SDS011;2937;48.562;8.022;2023-04-15T09:30:18;4.50;;;3.60;;
5821;SDS011;2937;48.562;8.022;2023-04-15T09:35:13;6.20;;;3.40;;
5821;SDS011;2937;48.562;8.022;2023-04-15T09:40:06;8.00;;;3.40;;
5821;SDS011;2937;48.562;8.022;2023-04-15T09:45:07;3.93;;;2.90;;
5821;SDS011;2937;48.562;8.022;2023-04-15T09:49:59;5.37;;;3.00;;
5821;SDS011;2937;48.562;8.022;2023-04-15T09:54:54;7.33;;;3.60;;
5821;SDS011;2937;48.562;8.022;2023-04-15T09:59:47;4.03;;;3.13;;
5821;SDS011;2937;48.562;8.022;2023-04-15T10:04:40;5.23;;;3.90;;
5821;SDS011;2937;48.562;8.022;2023-04-15T10:09:33;7.63;;;4.47;;
5821;SDS011;2937;48.562;8.022;2023-04-15T10:14:28;4.00;;;3.10;;
5821;SDS011;2937;48.562;8.022;2023-04-15T10:19:24;8.57;;;3.23;;
5821;SDS011;2937;48.562;8.022;2023-04-15T10:24:17;5.13;;;3.00;;
5821;SDS011;2937;48.562;8.022;2023-04-15T10:29:10;4.60;;;2.70;;
5821;SDS011;2937;48.562;8.022;2023-04-15T10:34:04;3.40;;;2.90;;
5821;SDS011;2937;48.562;8.022;2023-04-15T10:38:57;5.40;;;2.80;;
5821;SDS011;2937;48.562;8.022;2023-04-15T10:43:50;4.60;;;2.77;;
5821;SDS011;2937;48.562;8.022;2023-04-15T10:48:47;4.17;;;2.73;;
5821;SDS011;2937;48.562;8.022;2023-04-15T10:53:41;5.13;;;2.80;;
5821;SDS011;2937;48.562;8.022;2023-04-15T10:58:39;4.03;;;2.87;;
5821;SDS011;2937;48.562;8.022;2023-04-15T11:03:36;5.47;;;3.20;;
5821;SDS011;2937;48.562;8.022;2023-04-15T11:13:48;6.07;;;3.23;;
5821;SDS011;2937;48.562;8.022;2023-04-15T11:18:41;2.97;;;2.50;;
5821;SDS011;2937;48.562;8.022;2023-04-15T11:23:35;4.80;;;2.47;;
5821;SDS011;2937;48.562;8.022;2023-04-15T11:28:28;5.00;;;2.40;;
5821;SDS011;2937;48.562;8.022;2023-04-15T11:33:23;3.07;;;2.40;;
5821;SDS011;2937;48.562;8.022;2023-04-15T11:38:16;5.80;;;3.03;;
5821;SDS011;2937;48.562;8.022;2023-04-15T11:43:09;3.40;;;2.13;;
5821;SDS011;2937;48.562;8.022;2023-04-15T11:48:06;5.50;;;2.30;;
5821;SDS011;2937;48.562;8.022;2023-04-15T11:53:01;3.53;;;2.10;;
5821;SDS011;2937;48.562;8.022;2023-04-15T11:58:07;6.30;;;2.00;;
5821;SDS011;2937;48.562;8.022;2023-04-15T12:03:13;4.73;;;2.50;;
5821;SDS011;2937;48.562;8.022;2023-04-15T12:08:07;6.53;;;2.40;;
5821;SDS011;2937;48.562;8.022;2023-04-15T12:13:00;4.20;;;2.20;;
5821;SDS011;2937;48.562;8.022;2023-04-15T12:17:53;4.00;;;2.10;;
5821;SDS011;2937;48.562;8.022;2023-04-15T12:22:46;3.87;;;2.53;;
5821;SDS011;2937;48.562;8.022;2023-04-15T12:27:40;6.50;;;2.50;;
5821;SDS011;2937;48.562;8.022;2023-04-15T12:32:33;4.87;;;2.30;;
5821;SDS011;2937;48.562;8.022;2023-04-15T12:37:26;5.67;;;3.73;;
5821;SDS011;2937;48.562;8.022;2023-04-15T12:42:19;7.60;;;3.97;;
5821;SDS011;2937;48.562;8.022;2023-04-15T12:47:14;3.63;;;2.10;;
5821;SDS011;2937;48.562;8.022;2023-04-15T12:52:06;10.13;;;2.27;;
5821;SDS011;2937;48.562;8.022;2023-04-15T12:56:59;4.93;;;2.20;;
5821;SDS011;2937;48.562;8.022;2023-04-15T13:01:57;3.47;;;2.20;;
5821;SDS011;2937;48.562;8.022;2023-04-15T13:06:52;4.23;;;2.40;;
5821;SDS011;2937;48.562;8.022;2023-04-15T13:11:48;6.03;;;2.60;;
5821;SDS011;2937;48.562;8.022;2023-04-15T13:16:41;4.87;;;2.50;;
5821;SDS011;2937;48.562;8.022;2023-04-15T13:21:33;4.60;;;2.67;;
5821;SDS011;2937;48.562;8.022;2023-04-15T13:26:28;4.57;;;2.90;;
5821;SDS011;2937;48.562;8.022;2023-04-15T13:31:21;4.50;;;2.90;;
5821;SDS011;2937;48.562;8.022;2023-04-15T13:36:14;7.20;;;2.97;;
5821;SDS011;2937;48.562;8.022;2023-04-15T13:41:06;7.30;;;2.70;;
5821;SDS011;2937;48.562;8.022;2023-04-15T13:46:00;5.23;;;3.13;;
5821;SDS011;2937;48.562;8.022;2023-04-15T13:50:53;4.80;;;2.80;;
5821;SDS011;2937;48.562;8.022;2023-04-15T13:55:46;6.13;;;3.37;;
5821;SDS011;2937;48.562;8.022;2023-04-15T14:00:38;4.40;;;3.10;;
5821;SDS011;2937;48.562;8.022;2023-04-15T14:05:33;4.73;;;3.00;;
5821;SDS011;2937;48.562;8.022;2023-04-15T14:10:25;4.90;;;3.30;;
5821;SDS011;2937;48.562;8.022;2023-04-15T14:15:18;6.20;;;3.53;;
5821;SDS011;2937;48.562;8.022;2023-04-15T14:20:11;11.87;;;4.67;;
5821;SDS011;2937;48.562;8.022;2023-04-15T14:25:08;7.63;;;5.80;;
5821;SDS011;2937;48.562;8.022;2023-04-15T14:30:13;7.50;;;4.60;;
5821;SDS011;2937;48.562;8.022;2023-04-15T14:35:06;5.73;;;3.57;;
5821;SDS011;2937;48.562;8.022;2023-04-15T14:40:01;7.73;;;3.73;;
5821;SDS011;2937;48.562;8.022;2023-04-15T14:44:55;6.47;;;3.90;;
5821;SDS011;2937;48.562;8.022;2023-04-15T14:49:48;6.60;;;3.87;;
5821;SDS011;2937;48.562;8.022;2023-04-15T14:54:41;8.70;;;4.20;;
5821;SDS011;2937;48.562;8.022;2023-04-15T14:59:33;5.47;;;4.07;;
5821;SDS011;2937;48.562;8.022;2023-04-15T15:04:27;9.03;;;4.20;;
5821;SDS011;2937;48.562;8.022;2023-04-15T15:09:20;8.80;;;4.30;;
5821;SDS011;2937;48.562;8.022;2023-04-15T15:14:14;6.40;;;4.17;;
5821;SDS011;2937;48.562;8.022;2023-04-15T15:19:06;7.93;;;4.50;;
5821;SDS011;2937;48.562;8.022;2023-04-15T15:24:00;8.23;;;5.40;;
5821;SDS011;2937;48.562;8.022;2023-04-15T15:28:53;4.70;;;3.77;;
5821;SDS011;2937;48.562;8.022;2023-04-15T15:33:46;7.27;;;4.30;;
5821;SDS011;2937;48.562;8.022;2023-04-15T15:38:39;5.10;;;3.77;;
5821;SDS011;2937;48.562;8.022;2023-04-15T15:43:33;4.83;;;3.70;;
5821;SDS011;2937;48.562;8.022;2023-04-15T15:48:26;6.37;;;3.73;;
5821;SDS011;2937;48.562;8.022;2023-04-15T15:53:18;10.37;;;4.23;;
5821;SDS011;2937;48.562;8.022;2023-04-15T15:58:14;6.40;;;3.97;;
5821;SDS011;2937;48.562;8.022;2023-04-15T16:03:08;14.63;;;5.43;;
5821;SDS011;2937;48.562;8.022;2023-04-15T16:08:01;13.10;;;4.53;;
5821;SDS011;2937;48.562;8.022;2023-04-15T16:12:53;7.20;;;4.57;;
5821;SDS011;2937;48.562;8.022;2023-04-15T16:17:46;7.40;;;4.40;;
5821;SDS011;2937;48.562;8.022;2023-04-15T16:22:40;6.47;;;3.97;;
5821;SDS011;2937;48.562;8.022;2023-04-15T16:27:33;8.43;;;4.50;;
5821;SDS011;2937;48.562;8.022;2023-04-15T16:32:45;7.93;;;5.00;;
5821;SDS011;2937;48.562;8.022;2023-04-15T16:37:38;5.57;;;4.30;;
5821;SDS011;2937;48.562;8.022;2023-04-15T16:42:32;8.27;;;5.50;;
5821;SDS011;2937;48.562;8.022;2023-04-15T16:47:25;8.43;;;5.03;;
5821;SDS011;2937;48.562;8.022;2023-04-15T16:52:17;5.90;;;4.60;;
5821;SDS011;2937;48.562;8.022;2023-04-15T16:57:10;7.00;;;5.40;;
5821;SDS011;2937;48.562;8.022;2023-04-15T17:02:04;4.97;;;4.40;;
5821;SDS011;2937;48.562;8.022;2023-04-15T17:06:57;8.83;;;4.80;;
5821;SDS011;2937;48.562;8.022;2023-04-15T17:11:49;8.47;;;4.70;;
5821;SDS011;2937;48.562;8.022;2023-04-15T17:16:42;6.70;;;4.10;;
5821;SDS011;2937;48.562;8.022;2023-04-15T17:21:36;4.17;;;3.70;;
5821;SDS011;2937;48.562;8.022;2023-04-15T17:26:28;6.73;;;4.40;;
5821;SDS011;2937;48.562;8.022;2023-04-15T17:31:21;6.50;;;3.70;;
5821;SDS011;2937;48.562;8.022;2023-04-15T17:36:14;9.90;;;4.70;;
5821;SDS011;2937;48.562;8.022;2023-04-15T17:41:08;4.13;;;2.70;;
5821;SDS011;2937;48.562;8.022;2023-04-15T17:46:01;3.37;;;2.80;;
5821;SDS011;2937;48.562;8.022;2023-04-15T17:50:53;10.63;;;3.20;;
5821;SDS011;2937;48.562;8.022;2023-04-15T17:55:46;3.00;;;2.50;;
5821;SDS011;2937;48.562;8.022;2023-04-15T18:00:42;2.93;;;2.60;;
5821;SDS011;2937;48.562;8.022;2023-04-15T18:05:34;3.03;;;2.60;;
5821;SDS011;2937;48.562;8.022;2023-04-15T18:10:27;3.77;;;3.00;;
5821;SDS011;2937;48.562;8.022;2023-04-15T18:15:20;3.23;;;2.17;;
5821;SDS011;2937;48.562;8.022;2023-04-15T18:20:14;2.17;;;1.80;;
5821;SDS011;2937;48.562;8.022;2023-04-15T18:25:07;2.60;;;1.97;;
5821;SDS011;2937;48.562;8.022;2023-04-15T18:29:59;3.53;;;2.90;;
5821;SDS011;2937;48.562;8.022;2023-04-15T18:34:52;3.20;;;2.90;;
5821;SDS011;2937;48.562;8.022;2023-04-15T18:39:47;2.83;;;2.57;;
5821;SDS011;2937;48.562;8.022;2023-04-15T18:44:43;4.90;;;4.10;;
5821;SDS011;2937;48.562;8.022;2023-04-15T18:49:35;3.10;;;2.43;;
5821;SDS011;2937;48.562;8.022;2023-04-15T18:54:28;4.60;;;4.10;;
5821;SDS011;2937;48.562;8.022;2023-04-15T18:59:22;3.47;;;3.17;;
5821;SDS011;2937;48.562;8.022;2023-04-15T19:04:21;3.00;;;2.70;;
5821;SDS011;2937;48.562;8.022;2023-04-15T19:09:14;4.03;;;2.97;;
5821;SDS011;2937;48.562;8.022;2023-04-15T19:14:07;3.83;;;3.43;;
5821;SDS011;2937;48.562;8.022;2023-04-15T19:19:01;3.80;;;3.43;;
5821;SDS011;2937;48.562;8.022;2023-04-15T19:23:54;4.00;;;3.60;;
5821;SDS011;2937;48.562;8.022;2023-04-15T19:28:47;4.13;;;3.73;;
5821;SDS011;2937;48.562;8.022;2023-04-15T19:33:40;3.87;;;3.57;;
5821;SDS011;2937;48.562;8.022;2023-04-15T19:38:34;4.40;;;4.00;;
5821;SDS011;2937;48.562;8.022;2023-04-15T19:43:27;11.90;;;9.57;;
5821;SDS011;2937;48.562;8.022;2023-04-15T19:48:20;11.27;;;8.33;;
5821;SDS011;2937;48.562;8.022;2023-04-15T19:53:13;5.87;;;5.27;;
5821;SDS011;2937;48.562;8.022;2023-04-15T19:58:07;5.10;;;4.60;;
5821;SDS011;2937;48.562;8.022;2023-04-15T20:03:00;12.73;;;7.70;;
5821;SDS011;2937;48.562;8.022;2023-04-15T20:07:53;18.37;;;11.57;;
5821;SDS011;2937;48.562;8.022;2023-04-15T20:12:45;7.80;;;6.53;;
5821;SDS011;2937;48.562;8.022;2023-04-15T20:17:44;8.33;;;5.80;;
5821;SDS011;2937;48.562;8.022;2023-04-15T20:22:37;7.47;;;6.53;;
5821;SDS011;2937;48.562;8.022;2023-04-15T20:27:30;8.63;;;7.10;;
5821;SDS011;2937;48.562;8.022;2023-04-15T20:32:23;9.70;;;7.50;;
5821;SDS011;2937;48.562;8.022;2023-04-15T20:37:18;11.47;;;8.07;;
5821;SDS011;2937;48.562;8.022;2023-04-15T20:42:11;10.03;;;8.37;;
5821;SDS011;2937;48.562;8.022;2023-04-15T20:47:04;10.23;;;8.37;;
5821;SDS011;2937;48.562;8.022;2023-04-15T20:52:02;12.93;;;9.70;;
5821;SDS011;2937;48.562;8.022;2023-04-15T20:57:03;12.07;;;8.90;;
5821;SDS011;2937;48.562;8.022;2023-04-15T21:01:55;10.10;;;8.90;;
5821;SDS011;2937;48.562;8.022;2023-04-15T21:06:48;11.70;;;9.53;;
5821;SDS011;2937;48.562;8.022;2023-04-15T21:11:44;12.50;;;9.60;;
5821;SDS011;2937;48.562;8.022;2023-04-15T21:16:44;15.93;;;11.80;;
5821;SDS011;2937;48.562;8.022;2023-04-15T21:21:37;13.20;;;10.87;;
5821;SDS011;2937;48.562;8.022;2023-04-15T21:26:30;13.03;;;10.50;;
5821;SDS011;2937;48.562;8.022;2023-04-15T21:31:22;12.60;;;10.17;;
5821;SDS011;2937;48.562;8.022;2023-04-15T21:36:17;14.63;;;11.10;;
5821;SDS011;2937;48.562;8.022;2023-04-15T21:41:09;15.47;;;12.10;;
5821;SDS011;2937;48.562;8.022;2023-04-15T21:46:02;16.80;;;13.13;;
5821;SDS011;2937;48.562;8.022;2023-04-15T21:51:14;16.17;;;13.47;;
5821;SDS011;2937;48.562;8.022;2023-04-15T21:56:08;17.20;;;13.20;;
5821;SDS011;2937;48.562;8.022;2023-04-15T22:01:00;20.40;;;15.17;;
5821;SDS011;2937;48.562;8.022;2023-04-15T22:05:53;21.00;;;14.33;;
5821;SDS011;2937;48.562;8.022;2023-04-15T22:10:46;21.80;;;15.93;;
5821;SDS011;2937;48.562;8.022;2023-04-15T22:15:40;23.80;;;16.80;;
5821;SDS011;2937;48.562;8.022;2023-04-15T22:20:32;25.60;;;16.87;;
5821;SDS011;2937;48.562;8.022;2023-04-15T22:25:25;28.37;;;18.70;;
5821;SDS011;2937;48.562;8.022;2023-04-15T22:30:18;34.70;;;20.17;;
5821;SDS011;2937;48.562;8.022;2023-04-15T22:35:12;32.63;;;19.57;;
5821;SDS011;2937;48.562;8.022;2023-04-15T22:40:05;41.73;;;24.93;;
5821;SDS011;2937;48.562;8.022;2023-04-15T22:44:57;41.70;;;23.57;;
5821;SDS011;2937;48.562;8.022;2023-04-15T22:49:50;41.43;;;22.87;;
5821;SDS011;2937;48.562;8.022;2023-04-15T22:54:44;38.53;;;22.77;;
5821;SDS011;2937;48.562;8.022;2023-04-15T22:59:37;41.57;;;23.37;;
5821;SDS011;2937;48.562;8.022;2023-04-15T23:04:29;47.37;;;26.10;;
5821;SDS011;2937;48.562;8.022;2023-04-15T23:09:22;46.33;;;24.80;;
5821;SDS011;2937;48.562;8.022;2023-04-15T23:14:16;44.77;;;24.87;;
5821;SDS011;2937;48.562;8.022;2023-04-15T23:19:09;48.87;;;27.17;;
5821;SDS011;2937;48.562;8.022;2023-04-15T23:24:02;49.80;;;27.10;;
5821;SDS011;2937;48.562;8.022;2023-04-15T23:28:55;51.73;;;27.90;;
5821;SDS011;2937;48.562;8.022;2023-04-15T23:33:48;51.90;;;27.80;;
5821;SDS011;2937;48.562;8.022;2023-04-15T23:38:41;48.23;;;26.27;;
5821;SDS011;2937;48.562;8.022;2023-04-15T23:43:34;52.63;;;26.37;;
5821;SDS011;2937;48.562;8.022;2023-04-15T23:48:26;55.33;;;27.60;;
5821;SDS011;2937;48.562;8.022;2023-04-15T23:53:21;51.43;;;27.20;;
5821;SDS011;2937;48.562;8.022;2023-04-15T23:58:14;55.30;;;27.57;;
